Time;durP1;ratioP1;P1;durP2;ratioP2;P2;SDS_P1;SDS_P2;PMS_P1;PMS_P2;Temp;Humidity;BMP_temperature;BMP_pressure;BME280_temperature;BME280_humidity;BME280_pressure;Samples;Min_cycle;Max_cycle;Signal;HPM_P1;HPM_P2
2023/04/02 00:02:34;;;;;;;1.83;1.57;;;8.90;92.60;;;9.27;77.10;97040.34;5064868;28;20479;-74
2023/04/02 00:05:50;;;;;;;1.77;1.67;;;9.00;93.00;;;9.09;77.73;97035.03;5067854;28;20446;-73
2023/04/02 00:08:39;;;;;;;2.10;1.90;;;8.90;93.10;;;9.22;77.23;97040.22;5073880;28;20446;-76
2023/04/02 00:11:08;;;;;;;3.00;1.60;;;8.90;93.10;;;9.22;76.66;97042.91;5076618;28;20875;-72
2023/04/02 00:13:40;;;;;;;1.77;1.63;;;8.90;93.00;;;9.20;76.95;97050.41;5062690;28;20466;-73
2023/04/02 00:16:12;;;;;;;1.90;1.80;;;8.90;92.60;;;9.30;76.39;97045.25;5066161;28;20466;-73
2023/04/02 00:18:45;;;;;;;2.07;1.60;;;9.00;93.10;;;9.25;76.91;97049.69;5057687;28;20515;-74
2023/04/02 00:21:20;;;;;;;1.90;1.80;;;9.00;92.80;;;9.19;77.20;97048.75;5066380;28;20541;-75
2023/04/02 00:23:49;;;;;;;2.00;1.80;;;8.90;93.10;;;9.21;76.03;97057.44;5062335;28;20458;-74
2023/04/02 00:26:22;;;;;;;1.73;1.63;;;8.90;92.90;;;9.16;76.97;97054.59;5055896;28;20517;-73
2023/04/02 00:28:50;;;;;;;2.20;2.00;;;8.90;92.80;;;8.76;77.25;96992.16;5065746;28;20521;-75
2023/04/02 00:31:20;;;;;;;4.50;2.47;;;8.90;93.00;;;8.61;76.71;96975.59;5060274;28;20516;-75
2023/04/02 00:33:50;;;;;;;1.90;1.80;;;8.90;93.40;;;9.05;77.25;97058.91;5054672;28;20509;-74
2023/04/02 00:36:20;;;;;;;2.03;1.83;;;8.90;93.40;;;9.16;76.78;97066.22;5059163;28;20447;-73
2023/04/02 00:38:49;;;;;;;2.37;2.17;;;8.90;93.10;;;9.05;77.48;97070.50;5059631;28;20939;-73
2023/04/02 00:41:22;;;;;;;3.57;2.10;;;8.90;93.40;;;9.01;77.75;97071.19;5062783;28;20475;-73
2023/04/02 00:43:50;;;;;;;2.23;2.03;;;8.80;93.60;;;9.17;77.76;97061.63;5058717;28;20494;-73
2023/04/02 00:46:22;;;;;;;2.80;2.30;;;8.90;93.70;;;9.07;77.97;97073.81;5064734;28;20564;-72
2023/04/02 00:48:54;;;;;;;4.20;2.37;;;8.90;93.50;;;9.09;77.44;97073.56;5076986;28;20478;-75
2023/04/02 00:51:28;;;;;;;2.80;2.30;;;8.90;93.90;;;9.16;77.14;97063.50;5072811;28;20495;-75
2023/04/02 00:54:01;;;;;;;2.63;2.07;;;8.90;93.40;;;9.24;77.06;97075.00;5100439;28;20464;-76
2023/04/02 00:56:33;;;;;;;3.73;2.20;;;8.90;93.80;;;9.16;77.38;97070.75;5064278;28;20449;-74
2023/04/02 00:59:00;;;;;;;2.67;2.17;;;8.90;94.00;;;9.17;77.25;97072.41;5054576;28;20454;-74
2023/04/02 01:01:35;;;;;;;2.47;2.20;;;8.90;94.00;;;9.10;78.02;97071.69;5047884;28;20471;-74
2023/04/02 01:04:04;;;;;;;2.10;2.00;;;8.90;94.30;;;8.92;78.63;97068.00;5049887;28;20450;-76
2023/04/02 01:06:36;;;;;;;3.20;1.90;;;8.80;94.20;;;9.04;77.87;97087.72;5047165;28;20544;-77
2023/04/02 01:09:31;;;;;;;2.70;2.50;;;8.80;94.30;;;9.05;78.87;97086.69;5063158;28;20908;-75
2023/04/02 01:12:28;;;;;;;2.17;2.07;;;8.80;94.40;;;9.00;78.68;97073.06;5064425;28;20462;-74
2023/04/02 01:15:06;;;;;;;2.43;2.23;;;8.80;94.60;;;9.16;78.12;97089.63;5042684;28;20467;-76
2023/04/02 01:17:53;;;;;;;2.53;2.30;;;8.80;94.60;;;9.04;78.32;97085.03;5045465;28;20881;-74
2023/04/02 01:21:06;;;;;;;4.07;2.53;;;8.80;94.90;;;9.29;77.70;97089.44;5047464;28;20791;-77
2023/04/02 01:23:46;;;;;;;2.53;2.30;;;8.80;95.10;;;9.25;77.30;97085.56;5045157;28;20507;-73
2023/04/02 01:26:26;;;;;;;3.13;2.40;;;8.90;94.70;;;9.10;77.32;97093.25;5064474;28;20450;-75
2023/04/02 01:29:07;;;;;;;2.53;2.27;;;8.90;94.00;;;9.10;77.87;97090.56;5054001;28;20458;-76
2023/04/02 01:31:35;;;;;;;3.50;2.30;;;8.80;93.80;;;9.11;78.27;97094.91;5049037;28;20439;-72
2023/04/02 01:34:06;;;;;;;5.97;2.27;;;8.90;94.10;;;9.15;78.07;97094.22;5072302;28;20458;-75
2023/04/02 01:36:41;;;;;;;3.03;2.73;;;8.90;94.00;;;9.16;77.38;97100.41;5048314;28;20509;-74
2023/04/02 01:39:20;;;;;;;3.47;2.60;;;8.90;93.60;;;9.04;77.91;97106.59;5057595;28;20450;-74
2023/04/02 01:41:54;;;;;;;2.67;2.47;;;8.90;93.80;;;9.07;78.14;97103.44;5047634;28;20476;-77
2023/04/02 01:44:28;;;;;;;3.27;2.70;;;8.80;93.90;;;8.96;77.91;97096.13;5060949;28;20487;-74
2023/04/02 01:46:59;;;;;;;2.80;2.60;;;8.80;94.00;;;8.93;77.66;97110.06;5048915;28;20971;-76
2023/04/02 01:49:27;;;;;;;3.27;2.70;;;8.80;93.40;;;9.06;77.64;97115.28;5050876;28;20448;-76
2023/04/02 01:51:56;;;;;;;2.80;2.60;;;8.90;93.60;;;9.04;77.77;97111.16;5041300;28;20940;-75
2023/04/02 01:54:27;;;;;;;3.30;3.00;;;8.80;93.80;;;9.02;78.23;97122.16;5051062;28;20468;-74
2023/04/02 01:56:56;;;;;;;2.87;2.60;;;8.80;94.20;;;8.93;79.03;97126.22;5045197;28;20479;-73
2023/04/02 01:59:25;;;;;;;3.47;3.00;;;8.80;94.90;;;8.96;78.96;97124.94;5058106;28;20447;-76
2023/04/02 02:01:58;;;;;;;4.60;3.00;;;8.70;95.30;;;8.96;80.16;97123.06;5044273;28;20567;-74
2023/04/02 02:04:26;;;;;;;4.33;3.00;;;8.70;95.80;;;8.83;80.08;97123.22;5057713;28;20494;-74
2023/04/02 02:06:53;;;;;;;2.90;2.70;;;8.70;95.50;;;8.91;79.90;97114.84;5046833;28;20455;-73
2023/04/02 02:09:24;;;;;;;3.30;3.00;;;8.80;95.70;;;8.97;79.97;97130.09;5055080;28;20581;-76
2023/04/02 02:11:51;;;;;;;3.43;3.10;;;8.80;95.40;;;9.05;79.48;97128.97;5040086;28;20453;-75
2023/04/02 02:14:21;;;;;;;4.60;3.10;;;8.80;96.40;;;8.99;79.61;97133.38;5039824;28;20504;-73
2023/04/02 02:16:52;;;;;;;3.33;3.03;;;8.80;96.20;;;8.95;80.25;97134.88;5043551;28;20530;-76
2023/04/02 02:19:27;;;;;;;3.50;3.20;;;8.70;96.80;;;8.93;80.14;97123.53;5048122;28;20990;-75
2023/04/02 02:22:07;;;;;;;4.00;3.30;;;8.70;96.80;;;9.02;79.57;97135.66;5047325;28;20552;-74
2023/04/02 02:24:36;;;;;;;4.10;3.10;;;8.70;96.00;;;9.00;79.83;97126.94;5057436;28;20828;-73
2023/04/02 02:27:40;;;;;;;3.93;2.70;;;8.70;95.90;;;9.11;79.20;97141.53;5049141;28;20544;-74
2023/04/02 02:30:16;;;;;;;2.80;2.60;;;8.80;95.70;;;9.20;78.74;97142.84;5045954;28;20445;-73
2023/04/02 02:32:53;;;;;;;3.10;2.90;;;8.80;95.20;;;8.73;79.06;97111.13;5042448;28;20522;-73
2023/04/02 02:35:25;;;;;;;2.73;2.53;;;8.80;95.30;;;9.15;78.54;97144.56;5057683;28;20513;-73
2023/04/02 02:37:59;;;;;;;3.60;3.10;;;8.70;95.80;;;9.02;78.96;97153.66;5057797;28;21362;-72
2023/04/02 02:40:34;;;;;;;5.87;3.93;;;8.70;95.40;;;9.11;79.06;97149.63;5064240;28;20454;-74
2023/04/02 02:43:04;;;;;;;4.20;3.10;;;8.80;95.20;;;9.09;78.93;97153.59;5064488;28;20952;-74
2023/04/02 02:45:37;;;;;;;5.13;3.27;;;8.80;95.30;;;8.83;79.70;97155.56;5061054;28;20459;-73
2023/04/02 02:48:12;;;;;;;4.53;3.17;;;8.80;95.10;;;8.96;79.69;97159.97;5073517;28;20455;-74
2023/04/02 02:50:41;;;;;;;3.27;3.00;;;8.80;95.40;;;9.06;79.04;97162.94;5066474;28;20467;-73
2023/04/02 02:53:20;;;;;;;3.37;3.07;;;8.80;95.10;;;9.10;79.53;97168.69;5065422;28;20543;-73
2023/04/02 02:55:50;;;;;;;3.23;3.03;;;8.80;95.30;;;9.01;80.14;97171.69;5059681;28;20891;-78
2023/04/02 02:58:22;;;;;;;5.03;3.80;;;8.80;95.60;;;8.97;79.75;97150.84;5063486;28;20451;-73
2023/04/02 03:00:49;;;;;;;3.63;3.33;;;8.80;96.00;;;9.14;79.78;97172.56;5069685;28;20538;-74
2023/04/02 03:03:23;;;;;;;3.90;3.57;;;8.80;95.80;;;8.64;79.44;97109.78;5064171;28;20537;-76
2023/04/02 03:05:53;;;;;;;3.93;3.63;;;8.80;95.70;;;9.02;79.60;97181.44;5044780;28;20455;-75
2023/04/02 03:08:28;;;;;;;3.87;3.53;;;8.80;96.30;;;8.81;79.38;97154.94;5039103;28;20504;-76
2023/04/02 03:11:01;;;;;;;5.07;3.60;;;8.80;96.20;;;9.01;80.11;97187.84;5040638;28;20456;-76
2023/04/02 03:13:34;;;;;;;3.90;3.60;;;8.80;96.50;;;9.00;80.06;97180.03;5061721;28;20462;-75
2023/04/02 03:16:08;;;;;;;4.70;3.67;;;8.70;96.80;;;9.03;80.64;97193.88;5042544;28;20448;-73
2023/04/02 03:18:45;;;;;;;5.17;3.60;;;8.70;97.30;;;8.91;81.41;97190.28;5038953;28;20502;-73
2023/04/02 03:21:25;;;;;;;5.70;4.00;;;8.60;97.70;;;8.91;80.93;97198.38;5044472;28;21055;-74
2023/04/02 03:23:56;;;;;;;3.77;3.43;;;8.70;98.10;;;8.83;81.35;97186.00;5050518;28;20448;-72
2023/04/02 03:26:30;;;;;;;4.10;3.70;;;8.70;98.80;;;8.96;81.58;97209.28;5053708;28;20448;-74
2023/04/02 03:29:02;;;;;;;4.03;3.50;;;8.70;99.10;;;9.04;81.70;97208.16;5046490;28;21286;-74
2023/04/02 03:31:35;;;;;;;4.30;3.90;;;8.70;98.80;;;9.03;81.70;97207.34;5058999;28;20463;-73
2023/04/02 03:34:13;;;;;;;5.40;4.63;;;8.70;98.70;;;8.88;82.14;97214.97;5063455;28;20460;-76
2023/04/02 03:36:47;;;;;;;4.43;4.13;;;8.60;98.80;;;8.58;82.20;97159.16;5051028;28;20472;-76
2023/04/02 03:39:19;;;;;;;4.27;3.87;;;8.70;99.60;;;8.38;81.64;97160.13;5062994;28;20460;-73
2023/04/02 03:41:52;;;;;;;5.07;3.60;;;8.60;98.90;;;8.66;83.55;97223.47;5063432;28;20502;-77
2023/04/02 03:44:26;;;;;;;5.10;4.33;;;8.50;99.70;;;8.85;82.75;97224.31;5066800;28;20567;-74
2023/04/02 03:46:57;;;;;;;4.73;4.33;;;8.60;99.90;;;8.58;83.01;97205.75;5093782;28;20439;-73
2023/04/02 03:49:31;;;;;;;4.93;4.53;;;8.60;99.90;;;8.76;83.86;97228.34;5085028;28;20447;-73
2023/04/02 03:52:05;;;;;;;5.17;4.67;;;8.60;99.90;;;8.65;83.39;97232.59;5073359;28;20465;-76
2023/04/02 03:54:35;;;;;;;4.90;4.30;;;8.50;99.90;;;8.54;83.93;97227.94;5060079;28;20861;-78
2023/04/02 03:57:02;;;;;;;4.73;4.30;;;8.50;99.90;;;8.57;84.18;97225.63;5063668;28;20810;-77
2023/04/02 03:59:39;;;;;;;5.00;4.60;;;8.40;99.90;;;8.55;84.19;97229.59;5072652;28;21260;-74
2023/04/02 04:02:27;;;;;;;5.00;4.60;;;8.40;99.90;;;8.59;84.81;97244.28;5062616;28;21000;-73
2023/04/02 04:04:57;;;;;;;5.63;5.13;;;8.40;99.90;;;8.61;84.82;97236.78;5065854;28;20453;-73
2023/04/02 04:07:33;;;;;;;5.73;5.30;;;8.40;99.90;;;8.71;84.52;97247.84;5055928;28;20466;-75
2023/04/02 04:10:02;;;;;;;5.20;4.80;;;8.50;99.90;;;8.50;84.47;97225.69;5044224;28;20463;-75
2023/04/02 04:12:34;;;;;;;4.93;4.53;;;8.40;99.90;;;8.69;84.76;97249.94;5041307;28;20507;-76
2023/04/02 04:15:08;;;;;;;5.50;5.10;;;8.40;99.90;;;8.64;84.44;97252.50;5043259;28;20949;-78
2023/04/02 04:17:50;;;;;;;6.13;5.23;;;8.40;99.90;;;8.56;84.57;97250.06;5041853;28;20472;-74
2023/04/02 04:20:24;;;;;;;7.40;4.90;;;8.50;99.90;;;8.49;84.47;97225.88;5046360;28;20456;-74
2023/04/02 04:22:54;;;;;;;6.03;5.57;;;8.40;99.90;;;8.56;85.08;97261.69;5049533;28;20544;-74
2023/04/02 04:25:28;;;;;;;5.63;5.03;;;8.40;99.90;;;8.61;84.63;97266.41;5057563;28;20574;-72
2023/04/02 04:28:09;;;;;;;5.93;5.43;;;8.40;99.90;;;8.59;84.44;97252.34;5046352;28;20524;-73
2023/04/02 04:30:47;;;;;;;5.27;4.83;;;8.50;99.90;;;8.68;84.38;97264.47;5051624;28;20786;-75
2023/04/02 04:33:21;;;;;;;6.10;5.20;;;8.40;99.90;;;8.83;84.22;97272.22;5046021;28;20450;-74
2023/04/02 04:35:54;;;;;;;6.30;5.70;;;8.50;99.90;;;8.86;83.89;97273.63;5048654;28;20484;-73
2023/04/02 04:38:31;;;;;;;6.00;5.50;;;8.50;99.90;;;8.76;84.36;97280.34;5050346;28;20573;-73
2023/04/02 04:41:04;;;;;;;5.97;5.47;;;8.40;99.90;;;8.70;84.50;97266.94;5057542;28;20859;-74
2023/04/02 04:43:41;;;;;;;5.33;4.93;;;8.40;99.90;;;8.86;83.53;97284.38;5047931;28;20534;-78
2023/04/02 04:46:14;;;;;;;5.67;5.27;;;8.50;99.90;;;8.99;83.79;97292.34;5053991;28;20533;-75
2023/04/02 04:48:50;;;;;;;5.73;5.23;;;8.50;99.90;;;8.90;83.29;97299.91;5070846;28;20459;-74
2023/04/02 04:51:24;;;;;;;6.33;5.73;;;8.60;99.90;;;8.81;83.61;97300.41;5051061;28;21012;-73
2023/04/02 04:53:54;;;;;;;5.37;4.97;;;8.50;99.90;;;8.79;84.44;97297.91;5059567;28;20491;-72
2023/04/02 04:56:26;;;;;;;6.10;5.60;;;8.50;99.90;;;8.85;83.88;97301.59;5047302;28;20459;-73
2023/04/02 04:58:59;;;;;;;5.70;5.20;;;8.50;99.90;;;9.02;83.12;97305.41;5043466;28;21008;-74
2023/04/02 05:01:34;;;;;;;5.70;5.20;;;8.60;99.90;;;8.97;83.47;97305.22;5044805;28;20477;-77
2023/04/02 05:04:11;;;;;;;6.30;5.70;;;8.60;99.90;;;8.87;84.42;97312.97;5062832;28;20445;-74
2023/04/02 05:06:43;;;;;;;5.50;5.10;;;8.60;99.90;;;8.88;84.13;97320.03;5042234;28;20867;-76
2023/04/02 05:09:18;;;;;;;5.60;5.10;;;8.60;99.90;;;8.65;84.22;97316.09;5051292;28;20890;-73
2023/04/02 05:11:50;;;;;;;5.50;5.03;;;8.50;99.90;;;8.60;84.87;97326.69;5050720;28;20546;-71
2023/04/02 05:14:25;;;;;;;6.20;5.70;;;8.50;99.90;;;8.56;84.92;97323.63;5068756;28;20884;-74
2023/04/02 05:17:00;;;;;;;5.77;5.27;;;8.40;99.90;;;8.75;84.16;97318.28;5066881;28;20450;-74
2023/04/02 05:19:35;;;;;;;4.90;4.50;;;8.50;99.90;;;8.74;84.17;97322.84;5062814;28;20447;-73
2023/04/02 05:22:20;;;;;;;5.20;4.80;;;8.50;99.90;;;8.74;84.40;97313.94;5069640;28;20469;-74
2023/04/02 05:24:57;;;;;;;5.37;4.97;;;8.50;99.90;;;8.85;83.78;97333.94;5065110;28;20455;-77
2023/04/02 05:27:34;;;;;;;4.73;4.40;;;8.50;99.90;;;8.75;83.95;97340.66;5069085;28;20454;-77
2023/04/02 05:30:11;;;;;;;5.87;4.67;;;8.50;99.90;;;8.74;84.04;97330.94;5069149;28;20451;-75
2023/04/02 05:32:45;;;;;;;5.30;4.80;;;8.60;99.90;;;8.82;83.58;97345.16;5070539;28;20458;-77
2023/04/02 05:35:18;;;;;;;4.97;4.57;;;8.50;99.90;;;8.88;83.63;97338.91;5074099;28;20465;-78
2023/04/02 05:37:47;;;;;;;5.50;5.10;;;8.60;99.90;;;8.68;84.16;97337.19;5073149;28;20463;-77
2023/04/02 05:40:22;;;;;;;7.30;5.43;;;8.60;99.90;;;8.54;84.48;97343.72;5061324;28;20488;-77
2023/04/02 05:42:54;;;;;;;5.80;5.03;;;8.50;99.90;;;9.00;83.48;97358.66;5061838;28;20473;-73
2023/04/02 05:45:30;;;;;;;5.60;5.10;;;8.70;99.90;;;9.22;82.00;97355.56;5061632;28;20453;-71
2023/04/02 05:48:00;;;;;;;5.47;5.00;;;8.80;99.90;;;9.22;81.96;97377.13;5062717;28;20964;-73
2023/04/02 05:50:30;;;;;;;5.40;5.00;;;8.80;99.90;;;9.12;82.56;97366.03;5065561;28;20456;-73
2023/04/02 05:53:07;;;;;;;5.87;5.47;;;8.90;99.30;;;9.31;81.87;97370.38;5065230;28;20459;-72
2023/04/02 05:55:44;;;;;;;4.93;4.53;;;8.90;99.90;;;9.29;81.22;97367.09;5056941;28;20476;-72
2023/04/02 05:58:24;;;;;;;4.70;4.40;;;9.00;98.40;;;9.28;81.66;97380.81;5061127;28;20458;-71
2023/04/02 06:01:02;;;;;;;5.73;5.27;;;9.00;98.80;;;9.36;81.16;97383.19;5065633;28;20474;-72
2023/04/02 06:03:40;;;;;;;5.67;5.10;;;9.00;98.80;;;9.23;81.66;97380.63;5054973;28;20556;-73
2023/04/02 06:06:18;;;;;;;6.03;5.53;;;9.00;98.10;;;9.21;81.87;97384.38;5056099;28;20458;-72
2023/04/02 06:08:56;;;;;;;5.67;5.27;;;9.00;98.30;;;9.11;82.14;97391.31;5075145;28;20448;-73
2023/04/02 06:11:29;;;;;;;6.67;6.17;;;8.90;98.20;;;9.29;81.52;97390.53;5060477;28;20486;-74
2023/04/02 06:13:57;;;;;;;6.43;5.93;;;8.90;99.40;;;9.39;81.87;97398.91;5065739;28;20450;-72
2023/04/02 06:16:29;;;;;;;6.57;6.07;;;9.00;98.90;;;9.55;80.52;97402.91;5060917;28;20531;-73
2023/04/02 06:18:57;;;;;;;8.83;5.07;;;9.10;98.60;;;9.35;81.08;97403.97;5062102;28;20455;-71
2023/04/02 06:21:25;;;;;;;5.83;5.33;;;9.10;97.10;;;9.44;80.61;97403.66;5053354;28;20456;-71
2023/04/02 06:23:58;;;;;;;6.10;5.50;;;9.20;96.90;;;9.60;80.29;97411.16;5062601;28;20541;-72
2023/04/02 06:26:30;;;;;;;5.17;4.80;;;9.10;97.20;;;9.31;81.16;97402.72;5055300;28;20462;-71
2023/04/02 06:29:04;;;;;;;5.90;5.50;;;9.20;96.40;;;9.10;81.94;97386.97;5062585;28;21261;-71
2023/04/02 06:31:45;;;;;;;8.47;6.27;;;9.10;97.60;;;9.36;80.76;97418.25;5057641;28;20446;-71
2023/04/02 06:34:16;;;;;;;5.70;5.17;;;9.10;97.50;;;9.43;80.45;97415.47;5066318;28;20475;-72
2023/04/02 06:36:45;;;;;;;6.37;5.80;;;9.10;97.40;;;9.15;81.15;97387.97;5063957;28;20474;-70
2023/04/02 06:39:21;;;;;;;6.73;6.20;;;9.10;97.70;;;9.50;82.44;97427.03;5064167;28;20551;-71
2023/04/02 06:41:57;;;;;;;6.37;5.83;;;9.10;99.40;;;9.62;80.86;97427.94;5064446;28;20458;-71
2023/04/02 06:44:28;;;;;;;7.37;6.63;;;9.20;99.70;;;9.79;80.23;97430.06;5056954;28;20486;-71
2023/04/02 06:46:59;;;;;;;6.80;6.20;;;9.30;98.50;;;9.87;80.85;97437.84;5056957;28;20519;-71
2023/04/02 06:49:34;;;;;;;6.97;6.43;;;9.40;98.40;;;9.49;81.48;97441.56;5055493;28;20453;-71
2023/04/02 06:52:05;;;;;;;6.60;6.00;;;9.30;97.20;;;9.74;81.22;97451.47;5065987;28;20500;-71
2023/04/02 06:54:33;;;;;;;7.10;6.50;;;9.30;99.20;;;9.42;80.65;97419.22;5072570;28;21407;-70
2023/04/02 06:57:01;;;;;;;8.20;7.40;;;9.30;98.00;;;9.64;81.58;97452.84;5065312;28;21091;-71
2023/04/02 06:59:28;;;;;;;6.90;6.30;;;9.30;98.60;;;9.74;81.13;97459.56;5068197;28;20470;-71
2023/04/02 07:01:59;;;;;;;6.67;6.17;;;9.30;99.00;;;9.63;80.37;97455.75;5054991;28;21220;-72
2023/04/02 07:04:27;;;;;;;7.70;7.00;;;9.40;97.40;;;9.34;82.33;97472.41;5082031;28;21008;-71
2023/04/02 07:06:54;;;;;;;7.50;6.90;;;9.30;98.10;;;9.42;82.82;97470.47;5077179;28;20532;-70
2023/04/02 07:09:22;;;;;;;6.93;6.17;;;9.20;99.90;;;9.35;83.45;97430.91;5073450;28;20532;-71
2023/04/02 07:11:50;;;;;;;8.47;7.57;;;9.20;99.90;;;9.63;82.07;97470.06;5064186;28;20576;-73
2023/04/02 07:14:17;;;;;;;8.70;6.40;;;9.30;99.90;;;9.58;82.44;97472.59;5069220;28;20516;-70
2023/04/02 07:16:46;;;;;;;6.70;6.20;;;9.30;99.90;;;9.30;82.58;97476.56;5049267;28;20463;-71
2023/04/02 07:19:20;;;;;;;7.23;6.63;;;9.10;99.60;;;9.03;84.28;97468.72;5063153;28;20852;-70
2023/04/02 07:21:47;;;;;;;7.60;6.77;;;9.00;99.90;;;9.10;83.96;97475.91;5061443;28;20454;-70
2023/04/02 07:24:15;;;;;;;8.80;7.20;;;9.00;99.90;;;9.11;84.64;97480.25;5059323;28;21035;-70
2023/04/02 07:26:42;;;;;;;7.73;6.97;;;9.00;99.90;;;9.18;84.21;97494.53;5061716;28;20469;-72
2023/04/02 07:29:16;;;;;;;7.13;6.43;;;9.00;99.90;;;9.02;85.05;97488.63;5066335;28;20483;-71
2023/04/02 07:31:46;;;;;;;8.30;7.50;;;8.90;99.90;;;9.11;85.33;97488.34;5067110;28;20480;-68
2023/04/02 07:34:13;;;;;;;9.20;7.30;;;8.90;99.90;;;8.91;86.46;97500.09;5060990;28;20485;-69
2023/04/02 07:36:41;;;;;;;7.60;6.90;;;8.90;99.90;;;9.00;86.48;97504.16;5046366;28;20469;-69
2023/04/02 07:39:08;;;;;;;8.77;7.97;;;8.80;99.90;;;9.19;86.68;97506.94;5067157;28;20453;-71
2023/04/02 07:41:52;;;;;;;9.47;8.57;;;8.90;99.90;;;8.75;86.66;97451.09;5065119;28;20481;-70
2023/04/02 07:44:21;;;;;;;10.37;8.53;;;8.90;99.90;;;9.30;86.46;97513.50;5064542;28;20971;-71
2023/04/02 07:46:48;;;;;;;8.60;7.80;;;8.90;99.90;;;9.13;85.91;97503.25;5065383;28;21135;-70
2023/04/02 07:49:15;;;;;;;9.80;8.80;;;9.00;99.90;;;9.12;86.72;97522.34;5073088;28;20446;-70
2023/04/02 07:51:42;;;;;;;8.43;7.70;;;8.90;99.90;;;9.09;86.85;97517.38;5064024;28;20922;-71
2023/04/02 07:54:10;;;;;;;9.27;8.37;;;8.90;99.90;;;9.06;87.44;97518.63;5056189;28;20450;-69
2023/04/02 07:56:37;;;;;;;10.10;9.20;;;8.90;99.90;;;9.21;86.73;97529.13;5057005;28;20465;-71
2023/04/02 07:59:05;;;;;;;9.97;8.97;;;8.90;99.90;;;9.17;86.48;97530.56;5066326;28;20565;-70
2023/04/02 08:01:35;;;;;;;9.83;8.93;;;8.90;99.90;;;9.02;87.47;97539.81;5064790;28;20442;-69
2023/04/02 08:04:06;;;;;;;9.70;8.80;;;8.80;99.90;;;8.99;87.10;97542.94;5060099;28;20476;-73
2023/04/02 08:06:33;;;;;;;9.30;8.50;;;8.80;99.90;;;9.02;87.48;97552.47;5067358;28;20460;-72
2023/04/02 08:09:02;;;;;;;9.57;8.63;;;8.80;99.90;;;8.79;88.56;97557.34;5067636;28;20930;-70
2023/04/02 08:11:29;;;;;;;5.53;5.10;;;8.70;99.90;;;8.53;87.84;97552.91;5057131;28;20487;-70
2023/04/02 08:13:56;;;;;;;2.83;1.80;;;8.60;99.90;;;8.48;85.82;97566.97;5061774;28;20817;-70
2023/04/02 08:16:25;;;;;;;1.10;0.70;;;8.50;99.90;;;8.05;84.63;97583.66;5064647;28;20452;-70
2023/04/02 08:18:53;;;;;;;1.00;1.00;;;8.10;99.90;;;8.15;85.68;97578.69;5067295;28;20450;-70
2023/04/02 08:21:20;;;;;;;1.87;0.97;;;8.00;99.90;;;8.17;86.31;97595.44;5062005;28;20524;-70
2023/04/02 08:23:48;;;;;;;1.03;0.80;;;7.90;99.90;;;7.99;84.30;97579.94;5073555;28;20462;-70
2023/04/02 08:26:18;;;;;;;1.03;0.83;;;7.90;99.90;;;7.80;84.39;97534.03;5057804;28;20457;-69
2023/04/02 08:28:45;;;;;;;1.80;0.80;;;7.90;99.90;;;8.45;84.02;97605.09;5057185;28;20513;-68
2023/04/02 08:31:13;;;;;;;0.70;0.70;;;8.10;99.90;;;8.38;84.49;97603.47;5061145;28;20459;-68
2023/04/02 08:33:40;;;;;;;0.63;0.57;;;8.10;99.90;;;8.57;84.24;97615.22;5062566;28;20511;-68
2023/04/02 08:36:15;;;;;;;0.70;0.70;;;8.20;99.90;;;8.57;83.09;97617.91;5063069;28;20519;-69
2023/04/02 08:38:43;;;;;;;0.80;0.70;;;8.30;99.90;;;8.21;83.06;97615.50;5058475;28;20457;-68
2023/04/02 08:41:26;;;;;;;0.70;0.70;;;8.20;99.10;;;8.41;83.25;97619.19;5061652;28;20463;-70
2023/04/02 08:44:10;;;;;;;0.70;0.70;;;8.20;99.50;;;8.36;82.61;97628.75;5064532;28;20479;-71
2023/04/02 08:46:45;;;;;;;0.57;0.57;;;8.20;99.90;;;8.18;82.98;97640.16;5063577;28;20922;-70
2023/04/02 08:49:16;;;;;;;0.80;0.60;;;8.10;98.60;;;7.91;82.26;97583.69;5067667;28;21153;-69
2023/04/02 08:51:47;;;;;;;1.33;1.00;;;8.10;97.50;;;8.36;81.64;97649.44;5050793;28;20462;-69
2023/04/02 08:54:27;;;;;;;0.97;0.80;;;8.20;97.50;;;8.14;80.86;97652.38;5060932;28;20826;-68
2023/04/02 08:56:59;;;;;;;0.70;0.70;;;8.10;95.10;;;8.22;80.06;97657.53;5040663;28;20467;-71
2023/04/02 08:59:35;;;;;;;0.80;0.70;;;8.10;95.00;;;8.14;80.79;97659.59;5040730;28;20939;-72
2023/04/02 09:02:31;;;;;;;1.70;0.70;;;8.00;94.50;;;8.16;80.68;97669.13;5064378;28;20502;-70
2023/04/02 09:05:03;;;;;;;0.83;0.70;;;8.00;95.60;;;8.17;81.45;97672.66;5049372;28;20585;-70
2023/04/02 09:07:32;;;;;;;0.90;0.70;;;8.00;96.70;;;8.33;81.81;97674.09;5066475;28;20472;-70
2023/04/02 09:10:00;;;;;;;0.80;0.70;;;8.00;97.60;;;8.26;80.71;97675.94;5061023;28;20453;-69
2023/04/02 09:12:31;;;;;;;0.70;0.60;;;8.10;96.20;;;7.82;80.03;97691.69;5057532;28;20533;-71
2023/04/02 09:15:19;;;;;;;2.53;0.50;;;8.00;93.80;;;7.97;80.32;97686.94;5059006;28;20474;-69
2023/04/02 09:17:46;;;;;;;0.97;0.90;;;7.90;93.90;;;8.15;80.64;97690.88;5059039;28;20449;-69
2023/04/02 09:20:17;;;;;;;0.97;0.60;;;8.00;95.70;;;8.09;80.07;97703.28;5067314;28;20964;-70
2023/04/02 09:22:49;;;;;;;0.70;0.67;;;8.00;94.50;;;8.03;79.47;97715.69;5056888;28;21021;-67
2023/04/02 09:25:21;;;;;;;2.07;1.13;;;8.00;94.50;;;8.33;79.36;97711.78;5055980;28;20923;-69
2023/04/02 09:27:51;;;;;;;1.37;0.60;;;8.00;95.00;;;8.53;79.06;97716.31;5066294;28;20452;-68
2023/04/02 09:30:33;;;;;;;1.63;0.87;;;8.10;95.00;;;8.26;77.94;97725.22;5060556;28;20493;-69
2023/04/02 09:33:06;;;;;;;0.90;0.80;;;8.10;92.50;;;8.41;78.89;97733.06;5060583;28;20934;-70
2023/04/02 09:35:34;;;;;;;0.67;0.63;;;8.10;94.80;;;8.40;79.76;97715.28;5073010;28;20469;-71
2023/04/02 09:38:20;;;;;;;0.70;0.47;;;8.10;95.20;;;8.33;78.28;97752.16;5052460;28;20478;-70
2023/04/02 09:40:51;;;;;;;0.60;0.50;;;8.10;93.40;;;8.38;79.12;97752.34;5066592;28;20560;-69
2023/04/02 09:43:21;;;;;;;0.73;0.60;;;8.10;94.40;;;8.14;78.95;97753.78;5065791;28;21171;-70
2023/04/02 09:46:03;;;;;;;0.50;0.40;;;8.00;93.50;;;7.93;79.24;97751.06;5044461;28;20458;-70
2023/04/02 09:48:37;;;;;;;1.43;0.73;;;7.90;94.10;;;7.57;80.05;97760.31;5060471;28;20961;-70
2023/04/02 09:51:13;;;;;;;1.17;0.53;;;7.70;93.50;;;7.53;80.99;97763.63;5058622;28;20555;-70
2023/04/02 09:53:44;;;;;;;1.10;0.80;;;7.50;95.10;;;7.56;79.96;97765.88;5059568;28;20452;-69
2023/04/02 09:56:16;;;;;;;0.60;0.60;;;7.50;94.80;;;7.34;81.45;97769.53;5052486;28;20777;-72
2023/04/02 09:58:46;;;;;;;0.53;0.40;;;7.50;95.70;;;7.29;80.38;97780.06;5053909;28;20512;-68
2023/04/02 10:01:30;;;;;;;1.03;0.60;;;7.40;94.40;;;7.19;79.67;97775.06;5053870;28;20856;-69
2023/04/02 10:03:58;;;;;;;0.83;0.53;;;7.30;93.40;;;7.56;79.95;97795.47;5067894;28;20485;-68
2023/04/02 10:06:28;;;;;;;0.90;0.53;;;7.40;94.80;;;7.34;79.46;97787.53;5063227;28;20448;-68
2023/04/02 10:08:57;;;;;;;0.50;0.50;;;7.40;93.00;;;7.40;79.39;97796.66;5059796;28;20457;-68
2023/04/02 10:11:32;;;;;;;0.43;0.43;;;7.40;93.70;;;7.48;79.26;97796.47;5049727;28;20468;-68
2023/04/02 10:14:03;;;;;;;0.80;0.63;;;7.50;93.50;;;7.34;79.66;97782.16;5067340;28;21038;-71
2023/04/02 10:16:35;;;;;;;0.50;0.40;;;7.30;93.20;;;7.47;78.31;97803.72;5046671;28;20453;-74
2023/04/02 10:19:13;;;;;;;0.60;0.60;;;7.40;92.90;;;7.24;78.98;97817.47;5058515;28;20464;-72
2023/04/02 10:21:42;;;;;;;0.60;0.50;;;7.40;92.30;;;7.50;79.32;97810.53;5059903;28;20945;-72
2023/04/02 10:24:14;;;;;;;1.37;0.60;;;7.40;93.60;;;7.40;78.46;97818.97;5057248;28;20460;-72
2023/04/02 10:26:53;;;;;;;0.50;0.50;;;7.50;92.10;;;7.75;79.00;97820.78;5056073;28;20620;-71
2023/04/02 10:29:51;;;;;;;0.70;0.50;;;7.50;93.40;;;7.98;78.52;97820.41;5067260;28;20482;-72
2023/04/02 10:32:21;;;;;;;1.80;0.50;;;7.90;94.10;;;7.83;78.88;97825.97;5072792;28;20460;-72
2023/04/02 10:34:56;;;;;;;0.70;0.70;;;7.80;92.50;;;8.05;79.82;97820.44;5057795;28;20454;-73
2023/04/02 10:37:51;;;;;;;1.10;0.97;;;7.90;93.70;;;8.59;77.78;97821.34;5059791;28;20464;-73
2023/04/02 10:40:28;;;;;;;0.70;0.70;;;8.20;93.50;;;8.30;75.94;97822.56;5054782;28;21144;-72
2023/04/02 10:43:25;;;;;;;0.50;0.50;;;8.30;91.20;;;8.07;77.73;97842.59;5056698;28;20488;-71
2023/04/02 10:45:59;;;;;;;0.50;0.40;;;8.10;91.00;;;7.80;76.00;97848.72;5058858;28;20455;-73
2023/04/02 10:48:35;;;;;;;0.73;0.50;;;7.90;90.40;;;7.77;78.03;97840.22;5068224;28;20474;-73
2023/04/02 10:51:07;;;;;;;0.93;0.67;;;7.80;91.40;;;7.84;78.33;97843.78;5061260;28;20943;-73
2023/04/02 10:53:42;;;;;;;0.80;0.70;;;7.90;92.70;;;8.21;78.68;97857.72;5053903;28;20454;-72
2023/04/02 10:56:13;;;;;;;0.90;0.70;;;8.00;93.20;;;7.97;76.69;97855.63;5065250;28;20468;-73
2023/04/02 10:58:51;;;;;;;0.67;0.67;;;8.00;90.80;;;7.91;77.48;97860.75;5062268;28;20535;-72
2023/04/02 11:01:26;;;;;;;0.80;0.80;;;8.00;91.20;;;8.13;74.93;97866.00;5068005;28;20521;-73